Time;durP1;ratioP1;P1;durP2;ratioP2;P2;SDS_P1;SDS_P2;PMS_P1;PMS_P2;Temp;Humidity;BMP_temperature;BMP_pressure;BME280_temperature;BME280_humidity;BME280_pressure;Samples;Min_cycle;Max_cycle;Signal;HPM_P1;HPM_P2
2023/03/18 00:06:12;;;;;;;5.60;3.50;;;;;;;;;;5216407;23;20492;-86
2023/03/18 00:13:51;;;;;;;2.50;2.37;;;;;;;;;;5563936;23;20461;-87
2023/03/18 00:24:06;;;;;;;3.73;3.40;;;;;;;;;;4999248;23;20520;-81
2023/03/18 00:42:09;;;;;;;3.70;3.40;;;;;;;;;;5020158;23;20485;-87
2023/03/18 00:57:48;;;;;;;5.40;3.97;;;;;;;;;;4680497;23;20454;-89
2023/03/18 01:00:15;;;;;;;5.40;3.57;;;;;;;;;;4961001;29;20438;-86
2023/03/18 01:10:33;;;;;;;3.53;3.23;;;;;;;;;;4727274;23;20478;-87
2023/03/18 01:18:10;;;;;;;4.90;4.13;;;;;;;;;;4813414;23;20485;-87
2023/03/18 01:31:15;;;;;;;3.40;3.30;;;;;;;;;;3499207;23;20481;-87
2023/03/18 01:46:47;;;;;;;5.10;4.70;;;;;;;;;;2194137;23;20763;-82
2023/03/18 01:49:27;;;;;;;3.50;3.20;;;;;;;;;;4998037;28;20441;-86
2023/03/18 01:51:59;;;;;;;4.57;3.20;;;;;;;;;;4996639;28;20430;-86
2023/03/18 01:54:28;;;;;;;3.40;3.10;;;;;;;;;;4997561;28;20421;-86
2023/03/18 02:04:44;;;;;;;3.30;3.20;;;;;;;;;;2265698;23;20486;-87
2023/03/18 02:09:46;;;;;;;3.17;2.97;;;;;;;;;;4977067;28;20454;-87
2023/03/18 02:17:26;;;;;;;4.23;3.83;;;;;;;;;;4971964;28;20489;-87
2023/03/18 02:25:20;;;;;;;5.17;3.33;;;;;;;;;;5021263;23;20490;-87
2023/03/18 02:28:02;;;;;;;3.50;3.40;;;;;;;;;;4956973;29;20517;-87
2023/03/18 02:33:05;;;;;;;4.23;3.93;;;;;;;;;;4109645;23;20496;-86
2023/03/18 02:38:09;;;;;;;4.70;3.50;;;;;;;;;;3268843;23;20493;-87
2023/03/18 02:48:55;;;;;;;5.17;3.77;;;;;;;;;;4760207;26;20489;-87
2023/03/18 02:51:25;;;;;;;4.50;4.00;;;;;;;;;;4960049;29;20968;-88
2023/03/18 02:53:54;;;;;;;7.87;5.23;;;;;;;;;;4963978;29;20470;-87
2023/03/18 02:56:22;;;;;;;4.30;3.93;;;;;;;;;;4964291;29;20435;-87
2023/03/18 03:12:06;;;;;;;6.97;4.37;;;;;;;;;;4151259;27;20482;-87
2023/03/18 03:14:36;;;;;;;4.60;3.60;;;;;;;;;;4976470;28;20407;-87
2023/03/18 03:19:42;;;;;;;10.60;5.00;;;;;;;;;;5070915;23;20488;-86
2023/03/18 03:22:09;;;;;;;4.27;3.90;;;;;;;;;;4980587;28;20436;-82
2023/03/18 03:29:40;;;;;;;4.83;3.87;;;;;;;;;;4973393;29;20477;-87
2023/03/18 03:32:09;;;;;;;4.60;4.30;;;;;;;;;;4975168;29;20423;-86
2023/03/18 03:34:36;;;;;;;4.53;4.27;;;;;;;;;;4975450;29;20444;-87
2023/03/18 03:37:05;;;;;;;3.67;3.57;;;;;;;;;;4975943;28;20430;-88
2023/03/18 03:39:34;;;;;;;6.20;4.17;;;;;;;;;;4957884;29;20427;-87
2023/03/18 03:44:36;;;;;;;6.83;5.30;;;;;;;;;;4651019;23;20493;-86
2023/03/18 03:47:02;;;;;;;5.87;4.97;;;;;;;;;;4956289;29;20415;-85
2023/03/18 03:49:29;;;;;;;6.77;5.47;;;;;;;;;;4978777;28;20484;-86
2023/03/18 03:51:55;;;;;;;5.97;5.77;;;;;;;;;;4979558;29;20446;-88
2023/03/18 03:56:58;;;;;;;5.47;5.13;;;;;;;;;;5139975;23;20476;-88
2023/03/18 03:59:24;;;;;;;8.73;5.70;;;;;;;;;;4999203;28;20452;-88
2023/03/18 04:21:03;;;;;;;7.10;6.37;;;;;;;;;;4922122;29;20432;-86
2023/03/18 04:23:31;;;;;;;7.10;6.50;;;;;;;;;;4914757;29;20547;-87
2023/03/18 04:25:58;;;;;;;6.87;6.47;;;;;;;;;;4922709;29;20428;-87
2023/03/18 04:28:24;;;;;;;6.80;6.30;;;;;;;;;;4922239;29;20448;-85
2023/03/18 04:42:01;;;;;;;7.63;7.03;;;;;;;;;;4958040;28;20794;-86
2023/03/18 04:44:28;;;;;;;7.30;6.73;;;;;;;;;;4941082;29;20483;-87
2023/03/18 04:46:54;;;;;;;9.80;7.07;;;;;;;;;;4953813;28;20436;-87
2023/03/18 04:49:20;;;;;;;9.37;6.33;;;;;;;;;;4958567;29;20427;-87
2023/03/18 04:51:47;;;;;;;9.73;8.20;;;;;;;;;;4955869;29;20419;-82
2023/03/18 04:54:16;;;;;;;7.30;6.70;;;;;;;;;;4958922;28;20514;-87
2023/03/18 04:56:47;;;;;;;10.67;8.40;;;;;;;;;;4952255;28;20540;-86
2023/03/18 04:59:17;;;;;;;8.77;7.83;;;;;;;;;;4952120;29;20420;-86
2023/03/18 05:02:04;;;;;;;7.83;6.97;;;;;;;;;;4985228;23;20556;-91
2023/03/18 05:04:46;;;;;;;7.70;7.00;;;;;;;;;;4949867;29;20484;-92
2023/03/18 05:07:16;;;;;;;7.70;7.10;;;;;;;;;;4927826;29;20458;-92
2023/03/18 05:09:55;;;;;;;7.63;7.10;;;;;;;;;;4936781;29;20438;-93
2023/03/18 05:12:21;;;;;;;7.93;7.07;;;;;;;;;;4941467;29;20466;-93
2023/03/18 05:14:47;;;;;;;7.00;6.60;;;;;;;;;;4948398;29;20502;-92
2023/03/18 05:17:23;;;;;;;7.57;7.03;;;;;;;;;;4958634;28;20501;-92
2023/03/18 05:19:49;;;;;;;11.00;7.27;;;;;;;;;;4972687;28;20446;-93
2023/03/18 05:22:25;;;;;;;6.77;6.37;;;;;;;;;;4953989;28;20434;-92
2023/03/18 05:24:51;;;;;;;6.33;5.97;;;;;;;;;;4942822;29;20433;-90
2023/03/18 05:27:18;;;;;;;7.63;7.03;;;;;;;;;;4958029;28;20445;-92
2023/03/18 05:29:51;;;;;;;6.40;6.00;;;;;;;;;;4943792;29;20432;-92
2023/03/18 05:32:18;;;;;;;9.27;6.40;;;;;;;;;;4953498;29;20427;-92
2023/03/18 05:34:49;;;;;;;6.80;6.10;;;;;;;;;;4955317;29;20632;-91
2023/03/18 05:37:16;;;;;;;7.03;6.00;;;;;;;;;;4948521;29;20422;-92
2023/03/18 05:39:42;;;;;;;6.07;5.80;;;;;;;;;;4956119;29;20525;-93
2023/03/18 05:42:08;;;;;;;7.30;6.00;;;;;;;;;;4937436;29;20441;-93
2023/03/18 05:44:39;;;;;;;6.27;5.73;;;;;;;;;;4959757;29;20470;-92
2023/03/18 05:47:05;;;;;;;7.33;6.73;;;;;;;;;;4957707;29;20763;-91
2023/03/18 05:49:35;;;;;;;9.37;6.57;;;;;;;;;;4957770;29;20524;-94
2023/03/18 05:52:01;;;;;;;7.77;7.03;;;;;;;;;;4949666;29;20455;-93
2023/03/18 05:54:33;;;;;;;6.07;5.73;;;;;;;;;;4952636;29;20526;-92
2023/03/18 05:57:08;;;;;;;6.67;5.77;;;;;;;;;;4949127;29;20449;-93
2023/03/18 05:59:47;;;;;;;7.73;7.00;;;;;;;;;;4952443;29;20924;-92
2023/03/18 06:02:16;;;;;;;9.50;7.37;;;;;;;;;;4923042;29;20485;-93
2023/03/18 06:04:46;;;;;;;7.10;6.50;;;;;;;;;;4951279;29;20458;-92
2023/03/18 06:07:15;;;;;;;7.70;6.67;;;;;;;;;;4949433;29;20469;-91
2023/03/18 06:09:53;;;;;;;6.90;6.20;;;;;;;;;;4932677;29;20442;-91
2023/03/18 06:12:26;;;;;;;6.33;5.80;;;;;;;;;;4952413;29;20426;-92
2023/03/18 06:14:53;;;;;;;7.90;6.33;;;;;;;;;;4951761;29;20416;-91
2023/03/18 06:17:19;;;;;;;6.07;5.57;;;;;;;;;;4938719;29;20434;-91
2023/03/18 06:19:48;;;;;;;7.00;6.30;;;;;;;;;;4955173;29;20442;-92
2023/03/18 06:22:18;;;;;;;6.63;6.17;;;;;;;;;;4948944;29;20422;-93
2023/03/18 06:24:44;;;;;;;7.50;6.60;;;;;;;;;;4950175;29;20466;-92
2023/03/18 06:27:10;;;;;;;6.30;5.80;;;;;;;;;;4959591;29;20450;-93
2023/03/18 06:29:36;;;;;;;6.23;5.73;;;;;;;;;;4963076;28;20446;-92
2023/03/18 06:32:02;;;;;;;6.03;5.60;;;;;;;;;;4967281;28;20437;-93
2023/03/18 06:34:32;;;;;;;6.77;6.17;;;;;;;;;;4964533;28;20465;-92
2023/03/18 06:40:36;;;;;;;11.20;6.40;;;;;;;;;;5135981;23;20506;-87
2023/03/18 06:43:02;;;;;;;6.10;5.50;;;;;;;;;;4966596;29;20458;-88
2023/03/18 06:45:31;;;;;;;8.13;5.90;;;;;;;;;;4970479;29;20449;-87
2023/03/18 06:47:59;;;;;;;5.30;4.90;;;;;;;;;;4951477;29;20414;-87
2023/03/18 06:50:29;;;;;;;6.60;6.13;;;;;;;;;;4967459;29;20493;-87
2023/03/18 06:52:55;;;;;;;5.90;5.60;;;;;;;;;;4959143;29;20759;-86
2023/03/18 06:55:21;;;;;;;5.67;5.30;;;;;;;;;;4965591;29;20473;-85
2023/03/18 06:57:50;;;;;;;6.43;5.83;;;;;;;;;;4953971;29;20406;-86
2023/03/18 07:00:16;;;;;;;5.50;5.03;;;;;;;;;;4966993;29;20794;-86
2023/03/18 07:02:43;;;;;;;6.17;5.57;;;;;;;;;;4960057;29;20458;-87
2023/03/18 07:05:11;;;;;;;6.23;5.80;;;;;;;;;;4965943;29;20426;-86
2023/03/18 07:07:38;;;;;;;9.03;5.60;;;;;;;;;;4966539;29;20476;-86
2023/03/18 07:10:10;;;;;;;6.20;5.70;;;;;;;;;;4961281;29;20437;-82
2023/03/18 07:12:36;;;;;;;5.47;5.03;;;;;;;;;;4959997;29;20450;-79
2023/03/18 07:15:03;;;;;;;6.70;6.03;;;;;;;;;;4955914;29;20431;-87
2023/03/18 07:17:29;;;;;;;6.83;6.30;;;;;;;;;;4956215;29;20464;-88
2023/03/18 07:19:56;;;;;;;5.40;5.00;;;;;;;;;;4941042;29;20454;-86
2023/03/18 07:22:22;;;;;;;5.73;5.10;;;;;;;;;;4944188;29;20461;-87
2023/03/18 07:24:48;;;;;;;4.53;4.27;;;;;;;;;;4964295;29;20461;-85
2023/03/18 07:27:15;;;;;;;4.43;4.17;;;;;;;;;;4957339;29;20472;-86
2023/03/18 07:29:41;;;;;;;4.43;4.23;;;;;;;;;;4956954;29;20422;-86
2023/03/18 07:32:08;;;;;;;4.30;4.10;;;;;;;;;;4965025;29;20446;-84
2023/03/18 07:34:34;;;;;;;4.90;4.60;;;;;;;;;;4950583;29;20544;-84
2023/03/18 07:37:01;;;;;;;5.00;4.70;;;;;;;;;;4953745;29;20446;-83
2023/03/18 07:39:27;;;;;;;4.00;3.90;;;17.80;99.90;;;;;;4949593;29;20563;-83
2023/03/18 07:41:53;;;;;;;5.30;4.80;;;;;;;;;;4946371;29;21284;-85
2023/03/18 07:44:20;;;;;;;4.13;3.93;;;;;;;;;;4940409;29;21024;-84
2023/03/18 07:46:46;;;;;;;4.30;4.10;;;;;;;;;;4927266;29;20497;-87
2023/03/18 07:49:12;;;;;;;6.23;4.00;;;;;;;;;;4942825;29;20465;-86
2023/03/18 07:51:38;;;;;;;4.70;4.50;;;;;;;;;;4942612;29;20430;-86
2023/03/18 07:54:04;;;;;;;4.47;4.37;;;;;;;;;;4942212;29;20438;-84
2023/03/18 07:56:30;;;;;;;4.13;3.93;;;;;;;;;;4943711;29;21003;-83
2023/03/18 07:58:56;;;;;;;4.87;4.47;;;;;;;;;;4945260;29;20422;-83
2023/03/18 08:01:22;;;;;;;4.23;4.13;;;;;;;;;;4942991;29;20438;-86
2023/03/18 08:03:48;;;;;;;3.50;3.40;;;;;;;;;;4945120;29;20951;-84
2023/03/18 08:06:15;;;;;;;4.10;3.90;;;;;;;;;;4945470;29;20789;-85
2023/03/18 08:08:41;;;;;;;5.03;4.73;;;;;;;;;;4928188;29;20446;-85
2023/03/18 08:11:08;;;;;;;4.33;4.23;;;;;;;;;;4949290;29;20438;-85
2023/03/18 08:13:34;;;;;;;3.90;3.80;;;;;;;;;;4942577;29;20450;-85
2023/03/18 08:16:00;;;;;;;3.97;3.80;;;;;;;;;;4945432;29;20442;-84
2023/03/18 08:18:26;;;;;;;4.30;4.10;;;;;;;;;;4940255;29;20869;-83
2023/03/18 08:20:53;;;;;;;4.00;3.70;;;;;;;;;;4947367;29;20441;-85
2023/03/18 08:23:19;;;;;;;3.50;3.40;;;;;;;;;;4944112;29;20853;-86
2023/03/18 08:25:49;;;;;;;3.90;3.80;;;;;;;;;;4953740;29;20468;-86
2023/03/18 08:28:15;;;;;;;4.27;3.97;;;;;;;;;;4949187;28;20444;-85
2023/03/18 08:30:42;;;;;;;4.50;4.20;;;;;;;;;;4954904;29;20462;-86
2023/03/18 08:33:08;;;;;;;4.80;4.70;;;;;;;;;;4957296;28;20478;-86
2023/03/18 08:35:34;;;;;;;4.10;4.00;;;;;;;;;;4953800;29;20561;-89
2023/03/18 08:38:00;;;;;;;3.43;3.23;;;;;;;;;;4960616;29;20454;-87
2023/03/18 08:40:26;;;;;;;3.40;3.40;;;;;;;;;;4962037;29;20498;-82
2023/03/18 08:42:52;;;;;;;4.27;3.97;;;;;;;;;;4962119;29;20949;-84
2023/03/18 08:45:19;;;;;;;3.57;3.47;;;;;;;;;;4938839;29;20414;-84
2023/03/18 08:47:45;;;;;;;4.20;3.57;;;;;;;;;;4960971;28;20469;-86
2023/03/18 08:50:13;;;;;;;4.00;3.90;;;;;;;;;;4957548;29;20438;-84
2023/03/18 08:52:40;;;;;;;3.37;3.30;;;;;;;;;;4951724;29;20505;-87
2023/03/18 08:55:06;;;;;;;3.90;3.70;;;;;;;;;;4973701;28;20438;-86
2023/03/18 08:57:32;;;;;;;2.70;2.63;;;22.40;99.90;;;;;;4953390;29;20457;-87
2023/03/18 08:59:58;;;;;;;3.43;3.33;;;22.50;99.90;;;;;;4964759;29;20442;-86
2023/03/18 09:02:23;;;;;;;3.47;3.30;;;23.40;99.90;;;;;;4958751;29;20446;-86
2023/03/18 09:04:50;;;;;;;3.57;3.47;;;23.10;99.90;;;;;;4963878;29;20207;-87
2023/03/18 09:07:16;;;;;;;3.77;3.67;;;23.00;99.90;;;;;;4948276;29;20174;-86
2023/03/18 09:09:42;;;;;;;4.30;4.07;;;22.70;99.90;;;;;;4965339;29;20461;-84
2023/03/18 09:12:10;;;;;;;4.70;4.53;;;;;;;;;;4986126;23;20466;-81
2023/03/18 09:14:36;;;;;;;4.13;3.83;;;22.20;99.90;;;;;;4953614;28;20445;-86
2023/03/18 09:17:05;;;;;;;4.20;3.90;;;22.60;99.90;;;;;;4946758;29;21272;-85
2023/03/18 09:19:31;;;;;;;3.63;3.53;;;;;;;;;;4937267;29;20591;-85
2023/03/18 09:21:58;;;;;;;9.27;3.87;;;;;;;;;;4949421;29;20448;-87
2023/03/18 09:24:25;;;;;;;3.87;3.67;;;;;;;;;;4935109;29;20435;-84
2023/03/18 09:26:55;;;;;;;4.40;4.30;;;;;;;;;;4938205;29;20435;-86
2023/03/18 09:29:22;;;;;;;4.30;4.20;;;;;;;;;;4936795;29;20426;-84
2023/03/18 09:31:49;;;;;;;4.87;4.77;;;;;;;;;;4933937;28;20444;-83
2023/03/18 09:34:16;;;;;;;3.87;3.70;;;;;;;;;;4974986;29;20462;-83
2023/03/18 09:36:48;;;;;;;7.40;6.70;;;;;;;;;;5039003;23;20811;-85
2023/03/18 09:39:16;;;;;;;4.87;4.57;;;;;;;;;;4976416;28;20429;-85
2023/03/18 09:41:51;;;;;;;4.53;4.43;;;;;;;;;;4996384;28;20450;-85
2023/03/18 09:47:17;;;;;;;5.30;5.10;;;;;;;;;;4969849;26;20475;-85
2023/03/18 09:49:54;;;;;;;4.43;4.33;;;;;;;;;;4985496;28;20524;-84
2023/03/18 09:52:35;;;;;;;5.33;5.03;;;;;;;;;;4989717;28;20436;-86
2023/03/18 09:55:03;;;;;;;4.97;4.50;;;;;;;;;;4991588;28;20437;-86
2023/03/18 09:57:34;;;;;;;4.70;4.60;;;;;;;;;;4992501;28;20444;-85
2023/03/18 10:00:19;;;;;;;4.70;4.40;;;;;;;;;;4969790;29;20497;-87
2023/03/18 10:02:52;;;;;;;4.17;4.07;;;;;;;;;;4986950;28;20461;-87
2023/03/18 10:05:23;;;;;;;4.23;4.10;;;;;;;;;;4989935;28;20426;-86
2023/03/18 10:07:51;;;;;;;4.40;3.97;;;;;;;;;;4980928;28;20485;-85
2023/03/18 10:10:34;;;;;;;3.70;3.40;;;;;;;;;;4977062;28;20447;-84
2023/03/18 10:13:06;;;;;;;3.20;3.20;;;;;;;;;;4969879;28;20472;-85
2023/03/18 10:15:36;;;;;;;3.73;3.63;;;;;;;;;;4967726;28;20499;-81
2023/03/18 10:18:10;;;;;;;4.10;3.90;;;;;;;;;;4987292;28;20816;-86
2023/03/18 10:20:45;;;;;;;3.30;3.30;;;;;;;;;;4978900;28;20632;-86
2023/03/18 10:23:30;;;;;;;2.63;2.50;;;;;;;;;;4978117;28;20460;-86
2023/03/18 10:26:03;;;;;;;3.03;2.90;;;28.20;72.10;;;;;;4981976;28;20799;-86
2023/03/18 10:28:51;;;;;;;3.10;3.00;;;28.70;70.40;;;;;;4962144;28;20448;-84
2023/03/18 10:31:44;;;;;;;3.30;3.20;;;29.20;65.50;;;;;;4968223;28;20529;-85
2023/03/18 10:34:22;;;;;;;3.43;3.23;;;28.00;66.50;;;;;;4970697;28;20461;-83
2023/03/18 10:37:09;;;;;;;3.77;3.67;;;27.50;72.30;;;;;;4985283;28;20912;-85
2023/03/18 10:39:36;;;;;;;4.60;4.20;;;27.10;71.70;;;;;;4978852;28;20534;-80
2023/03/18 10:42:25;;;;;;;3.77;3.50;;;27.00;74.60;;;;;;4973189;28;20433;-85
2023/03/18 10:44:53;;;;;;;3.17;3.17;;;27.30;69.10;;;;;;4969097;28;20445;-84
2023/03/18 10:47:33;;;;;;;4.10;4.00;;;27.20;71.90;;;;;;4977042;28;20536;-84
2023/03/18 10:50:29;;;;;;;4.00;3.77;;;28.00;74.40;;;;;;4982203;28;20425;-84
2023/03/18 10:53:01;;;;;;;3.83;3.73;;;28.10;74.30;;;;;;4974823;28;20656;-86
2023/03/18 10:55:35;;;;;;;3.80;3.80;;;28.20;73.00;;;;;;4969256;28;20445;-84
2023/03/18 10:58:13;;;;;;;3.83;3.70;;;27.40;72.40;;;;;;4975647;28;20495;-84
2023/03/18 11:00:39;;;;;;;3.47;3.37;;;27.20;73.50;;;;;;4976525;28;20904;-84
2023/03/18 11:03:06;;;;;;;3.80;3.50;;;27.20;72.50;;;;;;4975772;28;20436;-81
2023/03/18 11:05:35;;;;;;;4.00;3.90;;;28.10;72.40;;;;;;4992352;28;20704;-82
2023/03/18 11:08:07;;;;;;;3.97;3.87;;;27.80;71.40;;;;;;4975228;28;20428;-83
2023/03/18 11:10:44;;;;;;;3.63;3.37;;;28.10;68.00;;;;;;4974066;28;20830;-82
2023/03/18 11:13:16;;;;;;;3.47;3.27;;;28.30;71.70;;;;;;4985263;28;20800;-81
2023/03/18 11:15:51;;;;;;;3.97;3.77;;;27.60;70.50;;;;;;4967305;28;20977;-82
2023/03/18 11:18:24;;;;;;;3.00;2.90;;;27.80;68.70;;;;;;4962219;28;20516;-79
2023/03/18 11:21:03;;;;;;;3.23;3.20;;;27.40;72.80;;;;;;4970426;28;20420;-82
2023/03/18 11:23:47;;;;;;;3.23;3.10;;;28.00;72.10;;;;;;4966626;28;20434;-81
2023/03/18 11:26:28;;;;;;;2.70;2.60;;;28.50;71.20;;;;;;4986792;28;20631;-82
2023/03/18 11:29:01;;;;;;;3.10;3.00;;;27.80;70.60;;;;;;4976384;28;20447;-85
2023/03/18 11:31:27;;;;;;;2.77;2.77;;;28.30;70.00;;;;;;4997865;28;20421;-85
2023/03/18 11:33:57;;;;;;;3.10;3.10;;;27.70;70.00;;;;;;4977372;28;20473;-87
2023/03/18 11:36:34;;;;;;;3.43;3.10;;;27.30;72.40;;;;;;4977457;28;20465;-85
2023/03/18 11:39:05;;;;;;;3.40;3.30;;;28.10;70.00;;;;;;4966229;28;20479;-84
2023/03/18 11:41:31;;;;;;;2.70;2.60;;;27.70;70.30;;;;;;4971560;28;20503;-84
2023/03/18 11:43:58;;;;;;;2.90;2.90;;;27.90;71.40;;;;;;4969537;28;20958;-83
2023/03/18 11:46:30;;;;;;;3.20;3.20;;;28.40;69.50;;;;;;4976057;28;20280;-84
2023/03/18 11:48:58;;;;;;;2.90;2.80;;;28.20;66.70;;;;;;4969339;28;20457;-83
2023/03/18 11:51:43;;;;;;;2.63;2.63;;;28.30;71.60;;;;;;4969227;28;20460;-83
2023/03/18 11:54:40;;;;;;;2.63;2.53;;;28.30;67.90;;;;;;4969387;28;20829;-82
2023/03/18 11:57:45;;;;;;;1.83;1.83;;;28.50;71.50;;;;;;4967484;28;20441;-83
2023/03/18 12:00:28;;;;;;;2.40;2.40;;;27.80;67.30;;;;;;4968189;28;20429;-84
2023/03/18 12:03:15;;;;;;;2.53;2.40;;;28.00;67.70;;;;;;4990853;28;21015;-84
2023/03/18 12:05:50;;;;;;;1.97;1.90;;;28.30;64.80;;;;;;4988385;28;20500;-85
2023/03/18 12:08:36;;;;;;;2.53;2.43;;;28.40;67.90;;;;;;4979638;28;20444;-82
2023/03/18 12:11:18;;;;;;;2.13;1.93;;;29.00;67.80;;;;;;4976699;28;20431;-84
2023/03/18 12:14:07;;;;;;;2.87;2.17;;;;;;;;;;4988445;28;20496;-84
2023/03/18 12:16:40;;;;;;;1.60;1.60;;;;;;;;;;4981148;28;20432;-84
2023/03/18 12:19:16;;;;;;;1.60;1.60;;;;;;;;;;4978791;28;20963;-83
2023/03/18 12:21:45;;;;;;;2.33;2.33;;;;;;;;;;4981048;28;20452;-82
2023/03/18 12:24:11;;;;;;;2.30;2.30;;;;;;;;;;4976193;28;20550;-83
2023/03/18 12:26:49;;;;;;;2.40;2.30;;;26.30;63.00;;;;;;4988810;28;20453;-80
2023/03/18 12:29:37;;;;;;;2.87;2.87;;;26.30;59.60;;;;;;4972353;28;20440;-81
2023/03/18 12:32:21;;;;;;;1.87;1.77;;;25.80;60.70;;;;;;4958614;28;20585;-83
2023/03/18 12:34:56;;;;;;;3.10;2.87;;;24.80;66.80;;;;;;4986819;28;20484;-84
2023/03/18 12:37:30;;;;;;;3.20;3.10;;;;;;;;;;4980354;28;20536;-80
2023/03/18 12:40:03;;;;;;;3.80;3.30;;;;;;;;;;4974019;28;20441;-82
2023/03/18 12:42:44;;;;;;;3.43;3.23;;;;;;;;;;4968278;28;20456;-79
2023/03/18 12:45:17;;;;;;;2.87;2.87;;;;;;;;;;4969358;28;20977;-83
2023/03/18 12:48:15;;;;;;;3.03;3.03;;;;;;;;;;4969484;28;20449;-81
2023/03/18 12:50:43;;;;;;;3.57;3.47;;;;;;;;;;4949915;28;20453;-83
2023/03/18 12:53:09;;;;;;;3.30;3.20;;;;;;;;;;4987407;28;20899;-81
2023/03/18 12:55:38;;;;;;;3.23;3.03;;;;;;;;;;4974695;28;20467;-83
2023/03/18 12:58:16;;;;;;;3.87;3.50;;;;;;;;;;4968931;28;20562;-80
2023/03/18 13:00:51;;;;;;;3.33;3.27;;;;;;;;;;4968828;28;20437;-82
2023/03/18 13:03:17;;;;;;;2.70;2.50;;;;;;;;;;4971589;28;20444;-78
2023/03/18 13:05:52;;;;;;;2.97;2.97;;;;;;;;;;4974872;28;20986;-81
2023/03/18 13:08:24;;;;;;;3.87;3.77;;;;;;;;;;4984785;28;20463;-83
2023/03/18 13:10:55;;;;;;;3.60;3.50;;;;;;;;;;4978192;28;20493;-84
2023/03/18 13:13:26;;;;;;;4.10;3.80;;;;;;;;;;4994304;28;20491;-82
2023/03/18 13:15:53;;;;;;;3.93;3.93;;;;;;;;;;4969027;28;20427;-83
2023/03/18 13:18:41;;;;;;;3.77;3.77;;;;;;;;;;4966459;28;20817;-83
2023/03/18 13:21:08;;;;;;;3.73;3.63;;;;;;;;;;4963889;28;20460;-81
2023/03/18 13:23:34;;;;;;;3.93;3.80;;;;;;;;;;4966242;28;20445;-82
2023/03/18 13:26:03;;;;;;;3.40;3.33;;;;;;;;;;4977008;28;20464;-85
2023/03/18 13:28:51;;;;;;;3.40;3.30;;;;;;;;;;4992338;28;20460;-84
2023/03/18 13:31:18;;;;;;;3.77;3.53;;;;;;;;;;4975072;28;20430;-80
2023/03/18 13:33:52;;;;;;;3.83;3.63;;;;;;;;;;4995356;28;20480;-83
2023/03/18 13:36:42;;;;;;;3.53;3.07;;;;;;;;;;5001180;28;20718;-84
2023/03/18 13:39:08;;;;;;;3.83;3.73;;;;;;;;;;4981174;28;20445;-82
2023/03/18 13:41:44;;;;;;;3.70;3.60;;;;;;;;;;4994481;28;20456;-84
2023/03/18 13:44:14;;;;;;;3.13;3.00;;;;;;;;;;4995773;28;20449;-82
2023/03/18 13:46:53;;;;;;;3.10;3.00;;;;;;;;;;4998429;28;20461;-82
2023/03/18 13:49:20;;;;;;;3.27;3.00;;;;;;;;;;4983139;28;20417;-83
2023/03/18 13:51:56;;;;;;;3.17;2.80;;;;;;;;;;4993647;28;20448;-83
2023/03/18 13:54:22;;;;;;;2.40;2.40;;;;;;;;;;4985246;28;20464;-84
2023/03/18 13:56:51;;;;;;;2.67;2.60;;;;;;;;;;4980330;28;20446;-83
2023/03/18 13:59:33;;;;;;;2.23;2.13;;;;;;;;;;4993054;28;20437;-84
2023/03/18 14:02:18;;;;;;;2.20;2.20;;;;;;;;;;4993544;28;20437;-83
2023/03/18 14:04:46;;;;;;;2.53;2.43;;;;;;;;;;4996592;28;20421;-83
2023/03/18 14:07:13;;;;;;;2.40;2.30;;;;;;;;;;4983492;28;20552;-83
2023/03/18 14:09:49;;;;;;;2.30;2.30;;;;;;;;;;4986362;28;20448;-83
2023/03/18 14:12:32;;;;;;;2.63;2.30;;;;;;;;;;4972962;28;20435;-83
2023/03/18 14:15:02;;;;;;;2.00;2.00;;;;;;;;;;4983994;28;20606;-82
2023/03/18 14:17:41;;;;;;;3.37;3.20;;;;;;;;;;4980093;28;20440;-84
2023/03/18 14:20:21;;;;;;;2.33;2.23;;;;;;;;;;4981196;28;20421;-81
2023/03/18 14:23:08;;;;;;;2.30;2.20;;;;;;;;;;4994340;28;20434;-83
2023/03/18 14:25:39;;;;;;;3.80;2.87;;;;;;;;;;4979972;28;20436;-82
2023/03/18 14:28:12;;;;;;;1.90;1.90;;;;;;;;;;4972609;28;20547;-80
2023/03/18 14:30:40;;;;;;;1.80;1.80;;;;;;;;;;4987930;28;20461;-81
2023/03/18 14:33:12;;;;;;;2.13;2.03;;;;;;;;;;4977395;28;20491;-82
2023/03/18 14:35:45;;;;;;;2.53;2.43;;;;;;;;;;5010156;28;20441;-84
2023/03/18 14:38:11;;;;;;;6.20;5.33;;;;;;;;;;4985371;28;20444;-83
2023/03/18 14:40:39;;;;;;;10.47;5.73;;;;;;;;;;4973935;28;20677;-83
2023/03/18 14:43:28;;;;;;;5.30;3.20;;;;;;;;;;4987301;28;20452;-83
2023/03/18 14:46:03;;;;;;;3.00;2.90;;;;;;;;;;4961661;28;20469;-82
2023/03/18 14:48:31;;;;;;;2.33;2.23;;;;;;;;;;4968909;28;20462;-81
2023/03/18 14:50:59;;;;;;;4.17;3.70;;;;;;;;;;4981872;28;20445;-81
2023/03/18 14:53:44;;;;;;;2.60;2.43;;;;;;;;;;4971215;28;20483;-83
2023/03/18 14:56:24;;;;;;;1.80;1.80;;;;;;;;;;4974485;28;20445;-83
2023/03/18 14:58:54;;;;;;;1.97;1.97;;;;;;;;;;4968752;28;20451;-83
2023/03/18 15:01:42;;;;;;;2.20;2.10;;;;;;;;;;4973109;28;20444;-83
2023/03/18 15:04:14;;;;;;;4.10;3.80;;;;;;;;;;4969710;28;20449;-81
2023/03/18 15:06:51;;;;;;;3.40;3.20;;;;;;;;;;4980852;28;20436;-85
2023/03/18 15:09:20;;;;;;;3.80;3.70;;;;;;;;;;4971548;28;20440;-83
2023/03/18 15:11:56;;;;;;;2.50;2.50;;;;;;;;;;4986184;28;20456;-85
2023/03/18 15:14:25;;;;;;;3.43;3.23;;;;;;;;;;4968498;28;20468;-83
2023/03/18 15:16:58;;;;;;;3.10;2.50;;;;;;;;;;4988252;28;21007;-86
2023/03/18 15:19:30;;;;;;;2.33;2.20;;;;;;;;;;4981990;28;20421;-84
2023/03/18 15:22:00;;;;;;;2.87;2.70;;;;;;;;;;4986909;28;20464;-85
2023/03/18 15:24:29;;;;;;;3.30;3.20;;;;;;;;;;4986017;28;20433;-85
2023/03/18 15:26:56;;;;;;;5.07;3.90;;;;;;;;;;4974554;28;20936;-84
2023/03/18 15:29:38;;;;;;;2.60;2.40;;;;;;;;;;4970229;28;20521;-84
2023/03/18 15:32:21;;;;;;;5.30;5.00;;;;;;;;;;4966908;28;20459;-82
2023/03/18 15:34:53;;;;;;;12.87;11.63;;;;;;;;;;4968613;28;20465;-84
2023/03/18 15:37:35;;;;;;;7.10;6.60;;;;;;;;;;4965251;28;20440;-84
2023/03/18 15:40:29;;;;;;;4.10;3.80;;;;;;;;;;4967910;28;20936;-84
2023/03/18 15:43:04;;;;;;;5.67;4.43;;;;;;;;;;4971632;28;20455;-86
2023/03/18 15:45:31;;;;;;;3.80;3.60;;;;;;;;;;4972417;28;20864;-84
2023/03/18 15:48:00;;;;;;;4.40;4.17;;;;;;;;;;4971778;28;20424;-84
2023/03/18 15:50:40;;;;;;;;;;;;;;;;;;;;;
2023/03/18 15:53:17;;;;;;;2.53;2.50;;;;;;;;;;4975283;28;20557;-84
2023/03/18 15:55:51;;;;;;;3.87;3.63;;;;;;;;;;4982502;28;20424;-85
2023/03/18 15:58:22;;;;;;;8.50;3.67;;;;;;;;;;4990704;28;20432;-84
2023/03/18 16:00:49;;;;;;;3.17;3.00;;;;;;;;;;4979946;28;20441;-84
2023/03/18 16:03:23;;;;;;;2.23;2.23;;;;;;;;;;4976670;28;20638;-86
2023/03/18 16:05:56;;;;;;;7.40;6.83;;;;;;;;;;4976745;28;20441;-84
2023/03/18 16:08:30;;;;;;;8.63;7.60;;;;;;;;;;4971761;28;20528;-84
2023/03/18 16:10:57;;;;;;;5.40;5.00;;;;;;;;;;4987417;28;20468;-83
2023/03/18 16:13:28;;;;;;;5.47;4.97;;;;;;;;;;4972628;28;20472;-85
2023/03/18 16:16:01;;;;;;;4.90;4.70;;;;;;;;;;4989414;28;20516;-84
2023/03/18 16:18:31;;;;;;;5.63;5.33;;;;;;;;;;4978752;28;20440;-84
2023/03/18 16:21:05;;;;;;;17.40;15.37;;;;;;;;;;4994706;28;20435;-85
2023/03/18 16:23:33;;;;;;;6.00;5.70;;;;;;;;;;4988439;28;20459;-83
2023/03/18 16:25:59;;;;;;;5.50;5.20;;;;;;;;;;4966211;28;20434;-83
2023/03/18 16:28:27;;;;;;;4.93;4.70;;;;;;;;;;4984809;28;20190;-85
2023/03/18 16:30:57;;;;;;;4.53;4.23;;;;;;;;;;4972507;28;20479;-85
2023/03/18 16:33:23;;;;;;;4.33;4.13;;;;;;;;;;4957080;28;20476;-84
2023/03/18 16:36:00;;;;;;;3.63;3.43;;;;;;;;;;4976959;28;20496;-84
2023/03/18 16:38:27;;;;;;;3.50;3.40;;;;;;;;;;4998874;28;20420;-83
2023/03/18 16:41:14;;;;;;;4.17;3.80;;;;;;;;;;4997644;28;20472;-86
2023/03/18 16:43:42;;;;;;;3.80;3.63;;;;;;;;;;4993218;28;20444;-87
2023/03/18 16:46:09;;;;;;;3.50;3.50;;;;;;;;;;4988047;28;20473;-85
2023/03/18 16:48:41;;;;;;;4.63;4.40;;;;;;;;;;4973688;28;20818;-84
2023/03/18 16:51:07;;;;;;;6.43;5.37;;;;;;;;;;4985788;28;20492;-86
2023/03/18 16:54:00;;;;;;;5.17;4.87;;;;;;;;;;4981440;28;20465;-85
2023/03/18 16:56:26;;;;;;;5.83;4.97;;;;;;;;;;4981468;28;20970;-86
2023/03/18 16:58:53;;;;;;;4.40;4.20;;;;;;;;;;4974532;28;20409;-84
2023/03/18 17:01:20;;;;;;;4.53;4.33;;;;;;;;;;4981352;28;20414;-84
2023/03/18 17:03:46;;;;;;;4.00;3.23;;;;;;;;;;4987450;28;20520;-84
2023/03/18 17:06:26;;;;;;;4.00;3.80;;;;;;;;;;5008112;28;20437;-88
2023/03/18 17:08:55;;;;;;;5.17;4.77;;;;;;;;;;4987503;28;20456;-85
2023/03/18 17:11:21;;;;;;;4.27;3.97;;;;;;;;;;4987118;28;20445;-83
2023/03/18 17:13:47;;;;;;;3.30;3.20;;;;;;;;;;4981802;28;20496;-84
2023/03/18 17:16:18;;;;;;;4.57;4.37;;;;;;;;;;4988424;28;20508;-85
2023/03/18 17:18:45;;;;;;;4.70;4.40;;;;;;;;;;4987458;28;20434;-85
2023/03/18 17:21:11;;;;;;;4.47;4.10;;;;;;;;;;4996354;28;20670;-86
2023/03/18 17:23:37;;;;;;;4.50;4.20;;;;;;;;;;4984855;28;20473;-84
2023/03/18 17:26:05;;;;;;;3.47;3.23;;;;;;;;;;4984945;28;20426;-82
2023/03/18 17:28:34;;;;;;;3.90;3.80;;;;;;;;;;4985289;28;20811;-85
2023/03/18 17:31:00;;;;;;;4.97;4.67;;;;;;;;;;4974672;28;20832;-83
2023/03/18 17:33:30;;;;;;;4.20;4.10;;;;;;;;;;4987633;28;20492;-84
2023/03/18 17:35:57;;;;;;;10.77;9.67;;;;;;;;;;5002374;28;20444;-85
2023/03/18 17:38:23;;;;;;;5.27;4.87;;;;;;;;;;4991488;28;20453;-85
2023/03/18 17:40:52;;;;;;;5.77;5.40;;;;;;;;;;4989539;28;20438;-85
2023/03/18 17:43:22;;;;;;;5.50;5.10;;;;;;;;;;4972732;28;20437;-84
2023/03/18 17:45:48;;;;;;;4.43;4.20;;;;;;;;;;4977890;28;20465;-84
2023/03/18 17:48:16;;;;;;;5.53;5.20;;;;;;;;;;4976431;28;21037;-81